❄⛄MeteoAcquaviva.it⛄❄ - WU Station History
^^
Dati Storici Stazione
 
Giornaliero Riassunto Gennaio 22, 2021 Unita' di misura:  Metriche    Inglesi   Entrambe
Giornaliero Settimanale Mensile Annuale
  Attuale: Max: Min: Media:
Temperatura: 13.8 °C 13.8 °C 8.9 °C 10.5 °C
Punto di Rugiada: 5.6 °C 8.4 °C 5.6 °C 7.4 °C
Umidita': 57.6% 89% 57.6% 82%
Velocita' Vento: 17.4km/h 17.4km/h 3.5km/h 8km/h
Raffica di Vento: 35.4km/h 35.4km/h - -
Direzione VentoSW - - SSW
Pressione: 1014.4 hPa 1017.5 hPa 1014.4 hPa -
Precipitazioni: 0 mm      
 
 
Tabelle Dati per il Gennaio 22, 2021
Ora Temperatura Punto Rugiada Pressione Dir.Vento Vel.Vento Raff.Vento Umidita' Rainfall Rate (Orario) Solare Condizioni
00:04 9.8 °C 6.9 °C 1017.5 hPa SSW 10 km/h 20.9 km/h 82.5% 0 mm W/m2
00:09 9.8 °C 7.3 °C 1017.5 hPa SSW 11.6 km/h 20.9 km/h 84.5% 0 mm W/m2
00:14 9.7 °C 7.3 °C 1017.5 hPa SW 10.9 km/h 20.9 km/h 85.6% 0 mm W/m2
00:19 9.4 °C 7.3 °C 1017.5 hPa SSW 7.4 km/h 20.9 km/h 86.4% 0 mm W/m2
00:24 9.3 °C 7.2 °C 1017.5 hPa South 7.2 km/h 14.5 km/h 87% 0 mm W/m2
00:29 9.1 °C 7.2 °C 1017.2 hPa SSW 6.9 km/h 14.8 km/h 87.7% 0 mm W/m2
00:34 9 °C 7.1 °C 1017.5 hPa South 5.8 km/h 14.5 km/h 88% 0 mm W/m2
00:39 8.9 °C 7.1 °C 1017.5 hPa South 6 km/h 13 km/h 88% 0 mm W/m2
00:44 9 °C 7.1 °C 1017.2 hPa SSW 7.2 km/h 19.3 km/h 88% 0 mm W/m2
00:49 9.2 °C 7.3 °C 1017.2 hPa SSW 8.9 km/h 19.3 km/h 88% 0 mm W/m2
00:54 9.2 °C 7.3 °C 1017.2 hPa SSW 7.9 km/h 16.1 km/h 88% 0 mm W/m2
00:59 9.2 °C 7.3 °C 1017.2 hPa South 8 km/h 16.7 km/h 88% 0 mm W/m2
01:04 9.2 °C 7.3 °C 1016.8 hPa SSW 8 km/h 16.7 km/h 88% 0 mm W/m2
01:09 9.2 °C 7.3 °C 1016.8 hPa SSW 10.1 km/h 19.3 km/h 88% 0 mm W/m2
01:14 9.2 °C 7.3 °C 1016.8 hPa South 8.9 km/h 19.3 km/h 88% 0 mm W/m2
01:19 9.3 °C 7.4 °C 1016.8 hPa SSW 8.7 km/h 19.3 km/h 88% 0 mm W/m2
01:24 9.3 °C 7.4 °C 1016.8 hPa SSW 7.7 km/h 19.3 km/h 88% 0 mm W/m2
01:29 9.4 °C 7.7 °C 1016.8 hPa SSW 8.9 km/h 19.3 km/h 88.9% 0 mm W/m2
01:34 9.4 °C 7.7 °C 1016.8 hPa South 7.6 km/h 19.3 km/h 89% 0 mm W/m2
01:39 9.5 °C 7.8 °C 1016.8 hPa South 7.1 km/h 16.1 km/h 89% 0 mm W/m2
01:44 9.5 °C 7.8 °C 1016.5 hPa SSW 7.4 km/h 18.5 km/h 89% 0 mm W/m2
01:49 9.5 °C 7.8 °C 1016.8 hPa SSW 6.3 km/h 19.3 km/h 89% 0 mm W/m2
01:52 9.5 °C 7.8 °C 1016.5 hPa SSW 6.6 km/h 12.9 km/h 89% 0 mm W/m2
04:54 10.4 °C 8.2 °C 1016.5 hPa SSW 6.4 km/h 13 km/h 86.2% 0 mm W/m2
04:59 10.6 °C 8.3 °C 1015.5 hPa South 6.3 km/h 14.8 km/h 86% 0 mm W/m2
05:04 10.7 °C 8.4 °C 1015.5 hPa South 6.6 km/h 14.5 km/h 86% 0 mm W/m2
05:09 10.7 °C 8.4 °C 1015.5 hPa SSW 8.4 km/h 18.5 km/h 86% 0 mm W/m2
05:14 10.7 °C 8.4 °C 1015.5 hPa South 7.1 km/h 19.3 km/h 86% 0 mm W/m2
05:19 10.7 °C 8.4 °C 1015.5 hPa South 6.9 km/h 16.7 km/h 86% 0 mm W/m2
05:24 10.7 °C 8.4 °C 1015.5 hPa SSW 6.4 km/h 16.1 km/h 86% 0 mm W/m2
05:29 10.6 °C 8.4 °C 1015.5 hPa South 7.4 km/h 16.7 km/h 86% 0 mm W/m2
05:34 10.6 °C 8.4 °C 1015.1 hPa South 7.1 km/h 16.1 km/h 86% 0 mm W/m2
05:39 10.6 °C 8.3 °C 1015.1 hPa SSW 6.6 km/h 16.1 km/h 86% 0 mm W/m2
05:44 10.5 °C 8.3 °C 1015.1 hPa South 6.6 km/h 14.5 km/h 86% 0 mm W/m2
05:49 10.4 °C 8.2 °C 1015.1 hPa SSW 7.4 km/h 16.7 km/h 86% 0 mm W/m2
05:54 10.4 °C 8.2 °C 1015.1 hPa South 7.2 km/h 16.1 km/h 86% 0 mm W/m2
05:59 10.3 °C 8.1 °C 1015.1 hPa South 6.9 km/h 16.7 km/h 86% 0 mm W/m2
06:04 10.3 °C 8.1 °C 1015.1 hPa South 5 km/h 14.5 km/h 86% 0 mm W/m2
06:09 10.2 °C 8 °C 1015.1 hPa SSW 5.6 km/h 12.9 km/h 86% 0 mm W/m2
06:14 10.2 °C 7.9 °C 1015.1 hPa South 4.5 km/h 11.3 km/h 86% 0 mm W/m2
06:19 10.1 °C 7.9 °C 1015.1 hPa South 4.7 km/h 11.3 km/h 86% 0 mm W/m2
06:24 10.1 °C 7.8 °C 1015.1 hPa South 3.5 km/h 11.3 km/h 86% 0 mm W/m2
06:29 10.1 °C 7.8 °C 1015.1 hPa South 3.9 km/h 13 km/h 85.9% 0 mm W/m2
06:34 10.1 °C 7.7 °C 1015.1 hPa South 4 km/h 12.9 km/h 85% 0 mm W/m2
06:39 10.1 °C 7.6 °C 1015.1 hPa South 3.7 km/h 8 km/h 84.1% 0 mm W/m2
06:44 10.2 °C 7.5 °C 1015.1 hPa South 4.5 km/h 13 km/h 83.8% 0 mm W/m2
06:49 10.2 °C 7.5 °C 1015.1 hPa South 6.4 km/h 13 km/h 83.4% 0 mm W/m2
06:54 10.3 °C 7.7 °C 1015.1 hPa South 5.3 km/h 12.9 km/h 84% 0 mm W/m2
06:59 10.3 °C 7.7 °C 1015.1 hPa South 5.3 km/h 11.3 km/h 84% 0 mm W/m2
07:04 10.3 °C 7.7 °C 1015.1 hPa South 5 km/h 13 km/h 84% 0 mm W/m2
07:09 10.3 °C 7.7 °C 1015.1 hPa SSW 5.5 km/h 12.9 km/h 84% 0 mm W/m2
07:14 10.3 °C 7.6 °C 1015.1 hPa SSW 6.6 km/h 17.7 km/h 83.2% 0 mm W/m2
07:19 10.3 °C 7.4 °C 1014.8 hPa South 9.7 km/h 19.3 km/h 82.2% 0 mm W/m2
07:24 10.4 °C 7.3 °C 1014.8 hPa SSW 8.5 km/h 16.1 km/h 81.2% 0 mm W/m2
07:29 10.4 °C 7.3 °C 1014.8 hPa SSW 8.5 km/h 16.1 km/h 81% 0 mm W/m2
07:34 10.4 °C 7.3 °C 1014.8 hPa SSW 9.8 km/h 18.5 km/h 80.8% 0 mm W/m2
07:39 10.5 °C 7.2 °C 1014.8 hPa SSW 9.8 km/h 19.3 km/h 80% 0 mm W/m2
07:44 10.6 °C 7.1 °C 1014.8 hPa SSW 11.4 km/h 19.3 km/h 79.2% 0 mm W/m2
07:49 10.6 °C 7.1 °C 1014.8 hPa SSW 9 km/h 19.3 km/h 79% 0 mm W/m2
07:54 10.6 °C 7.1 °C 1014.8 hPa SSW 9.5 km/h 16.7 km/h 79% 0 mm W/m2
07:59 10.6 °C 7.1 °C 1014.8 hPa SSW 9.3 km/h 20.9 km/h 79% 0 mm W/m2
08:04 10.6 °C 7.1 °C 1014.4 hPa SSW 6.1 km/h 20.9 km/h 79% 0 mm W/m2
08:09 10.5 °C 7 °C 1014.4 hPa SSW 6.4 km/h 13 km/h 79% 0 mm W/m2
08:14 10.5 °C 7 °C 1014.4 hPa SSW 6 km/h 13 km/h 79% 0 mm W/m2
08:19 10.5 °C 7 °C 1014.4 hPa South 6.4 km/h 13 km/h 79% 0 mm W/m2
08:24 10.6 °C 7.1 °C 1014.4 hPa South 5.1 km/h 13 km/h 79% 0 mm W/m2
08:29 10.6 °C 7.1 °C 1014.4 hPa South 5.5 km/h 12.9 km/h 79% 0 mm W/m2
08:34 10.8 °C 7.2 °C 1014.8 hPa South 6.8 km/h 16.7 km/h 78.1% 0 mm W/m2
08:39 11.1 °C 7.1 °C 1014.8 hPa SSW 8.9 km/h 16.7 km/h 76.5% 0 mm W/m2
08:44 11.3 °C 7 °C 1014.8 hPa SSW 6.8 km/h 17.7 km/h 75.1% 0 mm W/m2
08:49 11.4 °C 7 °C 1014.8 hPa SSW 9.3 km/h 19.3 km/h 74.3% 0 mm W/m2
08:54 11.7 °C 7.1 °C 1014.8 hPa SSW 10.3 km/h 19.3 km/h 73.4% 0 mm W/m2
08:59 11.8 °C 7.2 °C 1014.8 hPa SSW 9.5 km/h 19.3 km/h 73.1% 0 mm W/m2
09:04 11.8 °C 7.2 °C 1014.8 hPa SSW 8.7 km/h 19.3 km/h 73% 0 mm W/m2
09:09 11.8 °C 7.2 °C 1014.8 hPa South 9.5 km/h 19.3 km/h 73.2% 0 mm W/m2
09:14 11.9 °C 7.4 °C 1014.8 hPa SSW 9.7 km/h 19.3 km/h 74% 0 mm W/m2
09:19 12.1 °C 7.5 °C 1014.8 hPa SSW 12.6 km/h 24.1 km/h 73.7% 0 mm W/m2
09:24 12.2 °C 7.4 °C 1014.8 hPa SSW 12.4 km/h 24.1 km/h 73% 0 mm W/m2
09:29 12.2 °C 7.4 °C 1014.8 hPa SSW 11.9 km/h 19.3 km/h 72.8% 0 mm W/m2
09:34 12.3 °C 7.3 °C 1014.8 hPa SSW 12.2 km/h 19.3 km/h 71.3% 0 mm W/m2
09:39 12.6 °C 6.7 °C 1014.8 hPa SSW 13 km/h 24.1 km/h 67.6% 0 mm W/m2
09:44 13.1 °C 6.1 °C 1014.4 hPa SSW 16.6 km/h 29 km/h 62.6% 0 mm W/m2
09:49 13.4 °C 5.9 °C 1014.4 hPa SSW 17.1 km/h 32.2 km/h 60.2% 0 mm W/m2
09:54 13.7 °C 5.7 °C 1014.4 hPa SSW 14.5 km/h 32.2 km/h 58.6% 0 mm W/m2
09:59 13.8 °C 5.6 °C 1014.4 hPa SW 17.4 km/h 35.4 km/h 57.6% 0 mm W/m2
Acquaviva delle Fonti, BA, Italia
Complimenti a Weather Underground - 3 mb